createdAt,value
2023-03-22T00:00:57.000Z,10.63
2023-03-22T00:01:57.000Z,10.60
2023-03-22T00:02:56.000Z,10.61
2023-03-22T00:03:57.000Z,10.61
2023-03-22T00:04:56.000Z,10.56
2023-03-22T00:05:57.000Z,10.56
2023-03-22T00:06:57.000Z,10.56
2023-03-22T00:07:56.000Z,10.54
2023-03-22T00:08:57.000Z,10.55
2023-03-22T00:09:56.000Z,10.52
2023-03-22T00:10:56.000Z,10.52
2023-03-22T00:11:56.000Z,10.51
2023-03-22T00:12:57.000Z,10.51
2023-03-22T00:13:58.000Z,10.51
2023-03-22T00:14:58.000Z,10.51
2023-03-22T00:15:58.000Z,10.52
2023-03-22T00:16:56.000Z,10.52
2023-03-22T00:17:58.000Z,10.52
2023-03-22T00:18:56.000Z,10.54
2023-03-22T00:19:56.000Z,10.52
2023-03-22T00:20:57.000Z,10.51
2023-03-22T00:21:59.000Z,10.52
2023-03-22T00:22:57.000Z,10.50
2023-03-22T00:23:56.000Z,10.51
2023-03-22T00:24:57.000Z,10.50
2023-03-22T00:25:57.000Z,10.50
2023-03-22T00:26:57.000Z,10.50
2023-03-22T00:27:56.000Z,10.52
2023-03-22T00:28:56.000Z,10.49
2023-03-22T00:29:56.000Z,10.49
2023-03-22T00:30:58.000Z,10.50
2023-03-22T00:31:56.000Z,10.50
2023-03-22T00:32:56.000Z,10.50
2023-03-22T00:33:56.000Z,10.50
2023-03-22T00:34:56.000Z,10.50
2023-03-22T00:35:59.000Z,10.49
2023-03-22T00:36:57.000Z,10.50
2023-03-22T00:38:04.000Z,10.52
2023-03-22T00:38:57.000Z,10.49
2023-03-22T00:39:57.000Z,10.50
2023-03-22T00:41:04.000Z,10.49
2023-03-22T00:41:57.000Z,10.51
2023-03-22T00:42:58.000Z,10.50
2023-03-22T00:43:57.000Z,10.50
2023-03-22T00:44:57.000Z,10.51
2023-03-22T00:45:57.000Z,10.53
2023-03-22T00:46:57.000Z,10.54
2023-03-22T00:47:57.000Z,10.52
2023-03-22T00:48:57.000Z,10.54
2023-03-22T00:49:58.000Z,10.55
2023-03-22T00:50:57.000Z,10.56
2023-03-22T00:51:57.000Z,10.55
2023-03-22T00:52:57.000Z,10.57
2023-03-22T00:53:57.000Z,10.58
2023-03-22T00:54:57.000Z,10.57
2023-03-22T00:55:58.000Z,10.55
2023-03-22T00:56:57.000Z,10.57
2023-03-22T00:57:57.000Z,10.58
2023-03-22T00:58:57.000Z,10.55
2023-03-22T00:59:57.000Z,10.55
2023-03-22T01:00:57.000Z,10.54
2023-03-22T01:01:57.000Z,10.55
2023-03-22T01:02:59.000Z,10.57
2023-03-22T01:03:57.000Z,10.55
2023-03-22T01:04:57.000Z,10.54
2023-03-22T01:05:57.000Z,10.54
2023-03-22T01:07:02.000Z,10.53
2023-03-22T01:08:02.000Z,10.54
2023-03-22T01:08:57.000Z,10.50
2023-03-22T01:09:57.000Z,10.50
2023-03-22T01:10:57.000Z,10.49
2023-03-22T01:11:57.000Z,10.48
2023-03-22T01:12:57.000Z,10.49
2023-03-22T01:13:58.000Z,10.48
2023-03-22T01:14:56.000Z,10.48
2023-03-22T01:15:57.000Z,10.49
2023-03-22T01:16:57.000Z,10.49
2023-03-22T01:17:57.000Z,10.48
2023-03-22T01:18:57.000Z,10.49
2023-03-22T01:19:57.000Z,10.48
2023-03-22T01:20:58.000Z,10.49
2023-03-22T01:21:57.000Z,10.51
2023-03-22T01:22:57.000Z,10.50
2023-03-22T01:23:56.000Z,10.51
2023-03-22T01:24:56.000Z,10.52
2023-03-22T01:25:57.000Z,10.51
2023-03-22T01:26:57.000Z,10.52
2023-03-22T01:27:57.000Z,10.50
2023-03-22T01:28:57.000Z,10.50
2023-03-22T01:29:57.000Z,10.49
2023-03-22T01:31:00.000Z,10.51
2023-03-22T01:31:57.000Z,10.52
2023-03-22T01:32:57.000Z,10.52
2023-03-22T01:33:56.000Z,10.50
2023-03-22T01:34:57.000Z,10.50
2023-03-22T01:35:57.000Z,10.50
2023-03-22T01:36:57.000Z,10.51
2023-03-22T01:37:57.000Z,10.50
2023-03-22T01:38:57.000Z,10.50
2023-03-22T01:39:57.000Z,10.50
2023-03-22T01:40:57.000Z,10.52
2023-03-22T01:41:56.000Z,10.50
2023-03-22T01:42:57.000Z,10.52
2023-03-22T01:44:19.000Z,10.49
2023-03-22T01:45:07.000Z,10.51
2023-03-22T01:45:57.000Z,10.52
2023-03-22T01:46:57.000Z,10.50
2023-03-22T01:48:00.000Z,10.49
2023-03-22T01:48:59.000Z,10.52
2023-03-22T01:49:56.000Z,10.53
2023-03-22T01:51:06.000Z,10.53
2023-03-22T01:52:01.000Z,10.52
2023-03-22T01:52:59.000Z,10.50
2023-03-22T01:54:01.000Z,10.53
2023-03-22T01:54:57.000Z,10.52
2023-03-22T01:55:57.000Z,10.50
2023-03-22T01:56:57.000Z,10.50
2023-03-22T01:57:59.000Z,10.50
2023-03-22T01:58:57.000Z,10.50
2023-03-22T01:59:57.000Z,10.51
2023-03-22T02:00:57.000Z,10.50
2023-03-22T02:02:02.000Z,10.50
2023-03-22T02:02:57.000Z,10.49
2023-03-22T02:04:07.000Z,10.49
2023-03-22T02:04:57.000Z,10.51
2023-03-22T02:05:56.000Z,10.52
2023-03-22T02:06:57.000Z,10.49
2023-03-22T02:07:57.000Z,10.51
2023-03-22T02:08:57.000Z,10.48
2023-03-22T02:09:57.000Z,10.49
2023-03-22T02:10:58.000Z,10.48
2023-03-22T02:12:27.000Z,10.48
2023-03-22T02:13:19.000Z,10.48
2023-03-22T02:14:20.000Z,10.48
2023-03-22T02:15:08.000Z,10.46
2023-03-22T02:16:12.000Z,10.48
2023-03-22T02:17:07.000Z,10.48
2023-03-22T02:18:08.000Z,10.48
2023-03-22T02:19:20.000Z,10.48
2023-03-22T02:20:11.000Z,10.48
2023-03-22T02:21:16.000Z,10.48
2023-03-22T02:22:06.000Z,10.48
2023-03-22T02:23:28.000Z,10.49
2023-03-22T02:24:14.000Z,10.49
2023-03-22T02:25:19.000Z,10.49
2023-03-22T02:26:19.000Z,10.50
2023-03-22T02:27:13.000Z,10.49
2023-03-22T02:28:12.000Z,10.49
2023-03-22T02:29:05.000Z,10.52
2023-03-22T02:30:06.000Z,10.51
2023-03-22T02:31:06.000Z,10.50
2023-03-22T02:32:06.000Z,10.51
2023-03-22T02:33:12.000Z,10.53
2023-03-22T02:34:06.000Z,10.53
2023-03-22T02:35:06.000Z,10.51
2023-03-22T02:36:06.000Z,10.53
2023-03-22T02:37:06.000Z,10.53
2023-03-22T02:38:06.000Z,10.54
2023-03-22T02:39:06.000Z,10.54
2023-03-22T02:40:12.000Z,10.55
2023-03-22T02:41:10.000Z,10.56
2023-03-22T02:42:12.000Z,10.55
2023-03-22T02:43:11.000Z,10.58
2023-03-22T02:44:06.000Z,10.56
2023-03-22T02:45:20.000Z,10.60
2023-03-22T02:46:07.000Z,10.60
2023-03-22T02:47:05.000Z,10.60
2023-03-22T02:48:07.000Z,10.60
2023-03-22T02:49:19.000Z,10.61
2023-03-22T02:50:05.000Z,10.61
2023-03-22T02:51:03.000Z,10.64
2023-03-22T02:52:08.000Z,10.61
2023-03-22T02:53:17.000Z,10.61
2023-03-22T02:54:03.000Z,10.64
2023-03-22T02:55:07.000Z,10.62
2023-03-22T02:56:01.000Z,10.63
2023-03-22T02:57:05.000Z,10.64
2023-03-22T02:58:05.000Z,10.63
2023-03-22T02:59:02.000Z,10.65
2023-03-22T02:59:59.000Z,10.65
2023-03-22T03:01:02.000Z,10.66
2023-03-22T03:02:00.000Z,10.66
2023-03-22T03:03:05.000Z,10.67
2023-03-22T03:04:01.000Z,10.66
2023-03-22T03:04:57.000Z,10.68
2023-03-22T03:06:02.000Z,10.67
2023-03-22T03:07:02.000Z,10.68
2023-03-22T03:08:00.000Z,10.70
2023-03-22T03:08:58.000Z,10.71
2023-03-22T03:09:57.000Z,10.71
2023-03-22T03:10:57.000Z,10.72
2023-03-22T03:11:57.000Z,10.73
2023-03-22T03:12:57.000Z,10.72
2023-03-22T03:13:57.000Z,10.73
2023-03-22T03:14:57.000Z,10.73
2023-03-22T03:16:00.000Z,10.74
2023-03-22T03:17:17.000Z,10.73
2023-03-22T03:18:07.000Z,10.73
2023-03-22T03:19:08.000Z,10.72
2023-03-22T03:20:08.000Z,10.73
2023-03-22T03:21:09.000Z,10.72
2023-03-22T03:22:06.000Z,10.72
2023-03-22T03:23:07.000Z,10.71
2023-03-22T03:24:07.000Z,10.71
2023-03-22T03:25:08.000Z,10.71
2023-03-22T03:26:10.000Z,10.71
2023-03-22T03:27:07.000Z,10.69
2023-03-22T03:28:07.000Z,10.71
2023-03-22T03:29:16.000Z,10.71
2023-03-22T03:30:20.000Z,10.70
2023-03-22T03:31:20.000Z,10.69
2023-03-22T03:32:05.000Z,10.71
2023-03-22T03:33:05.000Z,10.72
2023-03-22T03:34:07.000Z,10.71
2023-03-22T03:35:04.000Z,10.71
2023-03-22T03:36:02.000Z,10.71
2023-03-22T03:37:04.000Z,10.71
2023-03-22T03:38:09.000Z,10.68
2023-03-22T03:38:58.000Z,10.67
2023-03-22T03:40:03.000Z,10.69
2023-03-22T03:41:03.000Z,10.67
2023-03-22T03:42:00.000Z,10.68
2023-03-22T03:43:01.000Z,10.68
2023-03-22T03:43:58.000Z,10.67
2023-03-22T03:44:58.000Z,10.68
2023-03-22T03:45:57.000Z,10.66
2023-03-22T03:46:57.000Z,10.65
2023-03-22T03:48:01.000Z,10.66
2023-03-22T03:48:58.000Z,10.62
2023-03-22T03:49:57.000Z,10.66
2023-03-22T03:50:59.000Z,10.66
2023-03-22T03:51:58.000Z,10.65
2023-03-22T03:52:57.000Z,10.65
2023-03-22T03:53:57.000Z,10.64
2023-03-22T03:54:57.000Z,10.65
2023-03-22T03:55:57.000Z,10.65
2023-03-22T03:56:57.000Z,10.65
2023-03-22T03:57:57.000Z,10.61
2023-03-22T03:58:57.000Z,10.62
2023-03-22T03:59:57.000Z,10.60
2023-03-22T04:00:57.000Z,10.59
2023-03-22T04:01:57.000Z,10.59
2023-03-22T04:02:57.000Z,10.59
2023-03-22T04:03:57.000Z,10.56
2023-03-22T04:04:57.000Z,10.54
2023-03-22T04:05:58.000Z,10.52
2023-03-22T04:06:59.000Z,10.51
2023-03-22T04:07:57.000Z,10.50
2023-03-22T04:08:57.000Z,10.50
2023-03-22T04:09:57.000Z,10.48
2023-03-22T04:10:57.000Z,10.47
2023-03-22T04:11:57.000Z,10.47
2023-03-22T04:12:57.000Z,10.47
2023-03-22T04:13:56.000Z,10.44
2023-03-22T04:14:57.000Z,10.42
2023-03-22T04:16:00.000Z,10.42
2023-03-22T04:16:57.000Z,10.40
2023-03-22T04:17:57.000Z,10.40
2023-03-22T04:18:57.000Z,10.37
2023-03-22T04:19:57.000Z,10.38
2023-03-22T04:20:57.000Z,10.36
2023-03-22T04:21:57.000Z,10.35
2023-03-22T04:22:57.000Z,10.36
2023-03-22T04:23:57.000Z,10.35
2023-03-22T04:24:59.000Z,10.35
2023-03-22T04:25:58.000Z,10.35
2023-03-22T04:26:57.000Z,10.34
2023-03-22T04:27:59.000Z,10.32
2023-03-22T04:28:57.000Z,10.31
2023-03-22T04:29:59.000Z,10.31
2023-03-22T04:30:57.000Z,10.31
2023-03-22T04:31:57.000Z,10.31
2023-03-22T04:32:57.000Z,10.29
2023-03-22T04:33:59.000Z,10.29
2023-03-22T04:34:57.000Z,10.29
2023-03-22T04:35:57.000Z,10.26
2023-03-22T04:37:00.000Z,10.29
2023-03-22T04:37:57.000Z,10.29
2023-03-22T04:38:57.000Z,10.27
2023-03-22T04:39:57.000Z,10.27
2023-03-22T04:40:57.000Z,10.22
2023-03-22T04:41:56.000Z,10.24
2023-03-22T04:42:57.000Z,10.24
2023-03-22T04:44:03.000Z,10.21
2023-03-22T04:44:56.000Z,10.22
2023-03-22T04:46:00.000Z,10.19
2023-03-22T04:46:56.000Z,10.19
2023-03-22T04:47:57.000Z,10.18
2023-03-22T04:48:57.000Z,10.17
2023-03-22T04:49:56.000Z,10.16
2023-03-22T04:51:04.000Z,10.17
2023-03-22T04:51:57.000Z,10.17
2023-03-22T04:52:57.000Z,10.17
2023-03-22T04:53:57.000Z,10.16
2023-03-22T04:54:56.000Z,10.14
2023-03-22T04:55:57.000Z,10.15
2023-03-22T04:56:56.000Z,10.15
2023-03-22T04:57:56.000Z,10.12
2023-03-22T04:58:56.000Z,10.13
2023-03-22T04:59:56.000Z,10.12
2023-03-22T05:00:57.000Z,10.12
2023-03-22T05:01:57.000Z,10.14
2023-03-22T05:02:56.000Z,10.11
2023-03-22T05:03:56.000Z,10.12
2023-03-22T05:04:56.000Z,10.11
2023-03-22T05:05:58.000Z,10.11
2023-03-22T05:06:56.000Z,10.11
2023-03-22T05:07:57.000Z,10.10
2023-03-22T05:08:57.000Z,10.10
2023-03-22T05:09:56.000Z,10.09
2023-03-22T05:11:02.000Z,10.07
2023-03-22T05:11:56.000Z,10.08
2023-03-22T05:12:56.000Z,10.07
2023-03-22T05:13:56.000Z,10.06
2023-03-22T05:14:57.000Z,10.05
2023-03-22T05:15:57.000Z,10.02
2023-03-22T05:16:56.000Z,10.01
2023-03-22T05:17:56.000Z,10.03
2023-03-22T05:18:56.000Z,10.02
2023-03-22T05:19:56.000Z,10.03
2023-03-22T05:20:58.000Z,10.02
2023-03-22T05:22:00.000Z,9.99
2023-03-22T05:22:57.000Z,9.99
2023-03-22T05:23:57.000Z,9.99
2023-03-22T05:24:56.000Z,9.99
2023-03-22T05:25:56.000Z,10.01
2023-03-22T05:26:59.000Z,9.98
2023-03-22T05:28:00.000Z,9.95
2023-03-22T05:28:57.000Z,9.97
2023-03-22T05:29:56.000Z,9.93
2023-03-22T05:30:56.000Z,9.91
2023-03-22T05:31:56.000Z,9.91
2023-03-22T05:33:00.000Z,9.91
2023-03-22T05:33:56.000Z,9.90
2023-03-22T05:34:56.000Z,9.86
2023-03-22T05:35:56.000Z,9.83
2023-03-22T05:37:00.000Z,9.82
2023-03-22T05:37:56.000Z,9.78
2023-03-22T05:38:56.000Z,9.80
2023-03-22T05:39:56.000Z,9.77
2023-03-22T05:40:56.000Z,9.76
2023-03-22T05:41:56.000Z,9.78
2023-03-22T05:42:56.000Z,9.76
2023-03-22T05:43:57.000Z,9.75
2023-03-22T05:44:57.000Z,9.75
2023-03-22T05:45:57.000Z,9.74
2023-03-22T05:46:57.000Z,9.73
2023-03-22T05:47:57.000Z,9.73
2023-03-22T05:48:57.000Z,9.71
2023-03-22T05:49:57.000Z,9.72
2023-03-22T05:50:57.000Z,9.70
2023-03-22T05:51:56.000Z,9.70
2023-03-22T05:52:57.000Z,9.70
2023-03-22T05:53:56.000Z,9.70
2023-03-22T05:54:57.000Z,9.68
2023-03-22T05:55:59.000Z,9.67
2023-03-22T05:56:56.000Z,9.66
2023-03-22T05:57:58.000Z,9.63
2023-03-22T05:58:57.000Z,9.63
2023-03-22T05:59:57.000Z,9.64
2023-03-22T06:01:04.000Z,9.61
2023-03-22T06:01:56.000Z,9.62
2023-03-22T06:03:02.000Z,9.62
2023-03-22T06:03:57.000Z,9.63
2023-03-22T06:04:56.000Z,9.64
2023-03-22T06:05:57.000Z,9.63
2023-03-22T06:06:57.000Z,9.67
2023-03-22T06:07:57.000Z,9.62
2023-03-22T06:08:57.000Z,9.63
2023-03-22T06:09:57.000Z,9.63
2023-03-22T06:10:56.000Z,9.63
2023-03-22T06:11:57.000Z,9.62
2023-03-22T06:12:56.000Z,9.62
2023-03-22T06:13:56.000Z,9.64
2023-03-22T06:14:57.000Z,9.63
2023-03-22T06:16:01.000Z,9.63
2023-03-22T06:16:56.000Z,9.63
2023-03-22T06:17:56.000Z,9.64
2023-03-22T06:18:56.000Z,9.63
2023-03-22T06:19:57.000Z,9.63
2023-03-22T06:20:57.000Z,9.66
2023-03-22T06:21:56.000Z,9.64
2023-03-22T06:22:56.000Z,9.66
2023-03-22T06:23:56.000Z,9.67
2023-03-22T06:24:56.000Z,9.68
2023-03-22T06:25:56.000Z,9.67
2023-03-22T06:26:56.000Z,9.68
2023-03-22T06:27:57.000Z,9.69
2023-03-22T06:28:56.000Z,9.69
2023-03-22T06:29:56.000Z,9.70
2023-03-22T06:30:56.000Z,9.72
2023-03-22T06:31:57.000Z,9.74
2023-03-22T06:32:59.000Z,9.74
2023-03-22T06:33:56.000Z,9.75
2023-03-22T06:34:56.000Z,9.77
2023-03-22T06:35:58.000Z,9.79
2023-03-22T06:36:57.000Z,9.81
2023-03-22T06:37:58.000Z,9.84
2023-03-22T06:38:57.000Z,9.86
2023-03-22T06:39:56.000Z,9.90
2023-03-22T06:40:56.000Z,9.88
2023-03-22T06:41:56.000Z,9.92
2023-03-22T06:42:56.000Z,9.96
2023-03-22T06:43:56.000Z,9.97
2023-03-22T06:44:56.000Z,9.98
2023-03-22T06:45:57.000Z,10.02
2023-03-22T06:46:56.000Z,9.99
2023-03-22T06:47:57.000Z,10.03
2023-03-22T06:48:56.000Z,10.04
2023-03-22T06:49:56.000Z,10.05
2023-03-22T06:50:58.000Z,10.07
2023-03-22T06:51:56.000Z,10.09
2023-03-22T06:52:56.000Z,10.10
2023-03-22T06:53:57.000Z,10.10
2023-03-22T06:54:57.000Z,10.10
2023-03-22T06:55:57.000Z,10.14
2023-03-22T06:56:57.000Z,10.13
2023-03-22T06:57:57.000Z,10.16
2023-03-22T06:58:57.000Z,10.19
2023-03-22T06:59:57.000Z,10.19
2023-03-22T07:00:57.000Z,10.23
2023-03-22T07:01:57.000Z,10.26
2023-03-22T07:02:57.000Z,10.27
2023-03-22T07:03:57.000Z,10.28
2023-03-22T07:04:57.000Z,10.31
2023-03-22T07:06:03.000Z,10.34
2023-03-22T07:06:57.000Z,10.36
2023-03-22T07:07:56.000Z,10.37
2023-03-22T07:08:57.000Z,10.40
2023-03-22T07:09:57.000Z,10.43
2023-03-22T07:10:57.000Z,10.46
2023-03-22T07:11:57.000Z,10.48
2023-03-22T07:12:57.000Z,10.51
2023-03-22T07:13:56.000Z,10.53
2023-03-22T07:14:56.000Z,10.54
2023-03-22T07:16:01.000Z,10.59
2023-03-22T07:16:57.000Z,10.59
2023-03-22T07:17:59.000Z,10.61
2023-03-22T07:18:57.000Z,10.64
2023-03-22T07:19:57.000Z,10.65
2023-03-22T07:20:56.000Z,10.68
2023-03-22T07:21:56.000Z,10.70
2023-03-22T07:22:57.000Z,10.72
2023-03-22T07:23:57.000Z,10.75
2023-03-22T07:24:56.000Z,10.79
2023-03-22T07:25:58.000Z,10.82
2023-03-22T07:26:56.000Z,10.83
2023-03-22T07:27:59.000Z,10.87
2023-03-22T07:28:57.000Z,10.87
2023-03-22T07:29:56.000Z,10.90
2023-03-22T07:31:03.000Z,10.94
2023-03-22T07:31:57.000Z,10.95
2023-03-22T07:32:56.000Z,10.97
2023-03-22T07:33:56.000Z,10.97
2023-03-22T07:34:56.000Z,11.00
2023-03-22T07:35:57.000Z,11.02
2023-03-22T07:36:57.000Z,11.06
2023-03-22T07:37:57.000Z,11.07
2023-03-22T07:38:57.000Z,11.08
2023-03-22T07:39:56.000Z,11.12
2023-03-22T07:40:57.000Z,11.14
2023-03-22T07:41:56.000Z,11.18
2023-03-22T07:43:00.000Z,11.19
2023-03-22T07:43:56.000Z,11.23
2023-03-22T07:44:56.000Z,11.25
2023-03-22T07:45:56.000Z,11.26
2023-03-22T07:46:56.000Z,11.27
2023-03-22T07:47:56.000Z,11.30
2023-03-22T07:48:56.000Z,11.32
2023-03-22T07:49:56.000Z,11.36
2023-03-22T07:50:56.000Z,11.38
2023-03-22T07:51:56.000Z,11.41
2023-03-22T07:52:56.000Z,11.45
2023-03-22T07:53:56.000Z,11.49
2023-03-22T07:54:56.000Z,11.51
2023-03-22T07:55:56.000Z,11.55
2023-03-22T07:56:56.000Z,11.57
2023-03-22T07:57:56.000Z,11.62
2023-03-22T07:58:56.000Z,11.65
2023-03-22T07:59:56.000Z,11.65
2023-03-22T08:01:05.000Z,11.68
2023-03-22T08:01:57.000Z,11.71
2023-03-22T08:02:56.000Z,11.75
2023-03-22T08:03:56.000Z,11.78
2023-03-22T08:04:56.000Z,11.82
2023-03-22T08:05:59.000Z,11.86
2023-03-22T08:06:57.000Z,11.92
2023-03-22T08:07:56.000Z,11.94
2023-03-22T08:08:57.000Z,12.04
2023-03-22T08:09:56.000Z,12.06
2023-03-22T08:10:56.000Z,12.13
2023-03-22T08:11:56.000Z,12.16
2023-03-22T08:12:56.000Z,12.18
2023-03-22T08:13:56.000Z,12.23
2023-03-22T08:14:57.000Z,12.27
2023-03-22T08:15:57.000Z,12.30
2023-03-22T08:16:56.000Z,12.35
2023-03-22T08:17:57.000Z,12.37
2023-03-22T08:18:57.000Z,12.42
2023-03-22T08:19:57.000Z,12.47
2023-03-22T08:20:58.000Z,12.54
2023-03-22T08:21:57.000Z,12.60
2023-03-22T08:22:56.000Z,12.64
2023-03-22T08:23:56.000Z,12.67
2023-03-22T08:24:56.000Z,12.74
2023-03-22T08:25:57.000Z,12.78
2023-03-22T08:26:56.000Z,12.79
2023-03-22T08:27:56.000Z,12.85
2023-03-22T08:28:57.000Z,12.90
2023-03-22T08:29:57.000Z,12.96
2023-03-22T08:30:56.000Z,12.98
2023-03-22T08:32:01.000Z,13.05
2023-03-22T08:32:56.000Z,13.15
2023-03-22T08:33:57.000Z,13.16
2023-03-22T08:34:57.000Z,13.15
2023-03-22T08:36:08.000Z,13.17
2023-03-22T08:36:57.000Z,13.21
2023-03-22T08:37:57.000Z,13.26
2023-03-22T08:38:57.000Z,13.29
2023-03-22T08:39:57.000Z,13.33
2023-03-22T08:40:56.000Z,13.37
2023-03-22T08:41:58.000Z,13.38
2023-03-22T08:42:58.000Z,13.45
2023-03-22T08:43:58.000Z,13.47
2023-03-22T08:44:56.000Z,13.52
2023-03-22T08:45:56.000Z,13.56
2023-03-22T08:46:57.000Z,13.59
2023-03-22T08:47:57.000Z,13.66
2023-03-22T08:48:59.000Z,13.68
2023-03-22T08:49:56.000Z,13.76
2023-03-22T08:50:56.000Z,13.81
2023-03-22T08:51:56.000Z,13.86
2023-03-22T08:52:56.000Z,13.90
2023-03-22T08:54:00.000Z,13.94
2023-03-22T08:54:56.000Z,14.00
2023-03-22T08:56:00.000Z,14.05
2023-03-22T08:56:58.000Z,14.14
2023-03-22T08:57:59.000Z,14.16
2023-03-22T08:58:56.000Z,14.23
2023-03-22T08:59:56.000Z,14.23
2023-03-22T09:00:56.000Z,14.23
2023-03-22T09:01:56.000Z,14.24
2023-03-22T09:02:56.000Z,14.24
2023-03-22T09:03:56.000Z,14.25
2023-03-22T09:04:56.000Z,14.28
2023-03-22T09:05:56.000Z,14.27
2023-03-22T09:06:56.000Z,14.28
2023-03-22T09:07:56.000Z,14.32
2023-03-22T09:08:56.000Z,14.34
2023-03-22T09:09:56.000Z,14.32
2023-03-22T09:10:56.000Z,14.35
2023-03-22T09:11:56.000Z,14.36
2023-03-22T09:12:56.000Z,14.37
2023-03-22T09:13:56.000Z,14.40
2023-03-22T09:14:56.000Z,14.42
2023-03-22T09:15:57.000Z,14.43
2023-03-22T09:16:57.000Z,14.42
2023-03-22T09:17:57.000Z,14.41
2023-03-22T09:18:57.000Z,14.43
2023-03-22T09:19:56.000Z,14.42
2023-03-22T09:20:57.000Z,14.43
2023-03-22T09:21:57.000Z,14.42
2023-03-22T09:22:57.000Z,14.44
2023-03-22T09:23:57.000Z,14.43
2023-03-22T09:24:57.000Z,14.45
2023-03-22T09:26:03.000Z,14.45
2023-03-22T09:26:57.000Z,14.50
2023-03-22T09:27:57.000Z,14.50
2023-03-22T09:28:57.000Z,14.53
2023-03-22T09:29:57.000Z,14.57
2023-03-22T09:31:01.000Z,14.56
2023-03-22T09:31:57.000Z,14.57
2023-03-22T09:32:57.000Z,14.60
2023-03-22T09:33:57.000Z,14.64
2023-03-22T09:34:57.000Z,14.66
2023-03-22T09:35:57.000Z,14.62
2023-03-22T09:36:57.000Z,14.70
2023-03-22T09:37:58.000Z,14.76
2023-03-22T09:38:58.000Z,14.80
2023-03-22T09:39:57.000Z,14.87
2023-03-22T09:41:05.000Z,14.90
2023-03-22T09:42:01.000Z,15.00
2023-03-22T09:43:01.000Z,15.06
2023-03-22T09:44:00.000Z,15.10
2023-03-22T09:45:00.000Z,15.13
2023-03-22T09:45:58.000Z,15.15
2023-03-22T09:47:02.000Z,15.23
2023-03-22T09:47:57.000Z,15.30
2023-03-22T09:49:03.000Z,15.36
2023-03-22T09:50:04.000Z,15.40
2023-03-22T09:51:00.000Z,15.41
2023-03-22T09:51:57.000Z,15.43
2023-03-22T09:52:58.000Z,15.47
2023-03-22T09:53:57.000Z,15.48
2023-03-22T09:54:58.000Z,15.47
2023-03-22T09:56:18.000Z,15.47
2023-03-22T09:57:17.000Z,15.42
2023-03-22T09:58:10.000Z,15.47
2023-03-22T09:59:20.000Z,15.48
2023-03-22T10:00:17.000Z,15.48
2023-03-22T10:01:01.000Z,15.55
2023-03-22T10:02:21.000Z,15.52
2023-03-22T10:03:17.000Z,15.53
2023-03-22T10:04:17.000Z,15.56
2023-03-22T10:05:08.000Z,15.54
2023-03-22T10:06:07.000Z,15.58
2023-03-22T10:07:08.000Z,15.57
2023-03-22T10:08:07.000Z,15.57
2023-03-22T10:09:12.000Z,15.58
2023-03-22T10:10:15.000Z,15.63
2023-03-22T10:10:58.000Z,15.63
2023-03-22T10:12:12.000Z,15.67
2023-03-22T10:13:08.000Z,15.70
2023-03-22T10:14:07.000Z,15.70
2023-03-22T10:15:16.000Z,15.66
2023-03-22T10:16:05.000Z,15.57
2023-03-22T10:17:00.000Z,15.57
2023-03-22T10:17:59.000Z,15.58
2023-03-22T10:19:05.000Z,15.56
2023-03-22T10:20:07.000Z,15.59
2023-03-22T10:21:05.000Z,15.63
2023-03-22T10:21:59.000Z,15.64
2023-03-22T10:22:59.000Z,15.62
2023-03-22T10:24:09.000Z,15.62
2023-03-22T10:24:59.000Z,15.63
2023-03-22T10:25:59.000Z,15.62
2023-03-22T10:26:57.000Z,15.64
2023-03-22T10:27:57.000Z,15.58
2023-03-22T10:29:08.000Z,15.61
2023-03-22T10:30:18.000Z,15.60
2023-03-22T10:30:57.000Z,15.57
2023-03-22T10:32:11.000Z,15.59
2023-03-22T10:33:00.000Z,15.63
2023-03-22T10:34:00.000Z,15.63
2023-03-22T10:34:57.000Z,15.64
2023-03-22T10:35:58.000Z,15.66
2023-03-22T10:37:04.000Z,15.70
2023-03-22T10:38:00.000Z,15.70
2023-03-22T10:39:17.000Z,15.71
2023-03-22T10:40:01.000Z,15.71
2023-03-22T10:40:58.000Z,15.71
2023-03-22T10:42:01.000Z,15.75
2023-03-22T10:43:03.000Z,15.77
2023-03-22T10:44:01.000Z,15.80
2023-03-22T10:45:04.000Z,15.78
2023-03-22T10:46:00.000Z,15.77
2023-03-22T10:47:01.000Z,15.75
2023-03-22T10:48:22.000Z,15.78
2023-03-22T10:48:59.000Z,15.78
2023-03-22T10:50:00.000Z,15.82
2023-03-22T10:50:58.000Z,15.84
2023-03-22T10:52:02.000Z,15.87
2023-03-22T10:53:10.000Z,15.95
2023-03-22T10:53:58.000Z,15.99
2023-03-22T10:54:57.000Z,16.00
2023-03-22T10:55:57.000Z,16.07
2023-03-22T10:56:57.000Z,16.06
2023-03-22T10:58:13.000Z,16.14
2023-03-22T10:58:57.000Z,16.19
2023-03-22T10:59:57.000Z,16.21
2023-03-22T11:01:07.000Z,16.29
2023-03-22T11:01:57.000Z,16.34
2023-03-22T11:02:59.000Z,16.34
2023-03-22T11:04:09.000Z,16.38
2023-03-22T11:05:03.000Z,16.42
2023-03-22T11:06:03.000Z,16.47
2023-03-22T11:06:57.000Z,16.49
2023-03-22T11:08:02.000Z,16.53
2023-03-22T11:09:11.000Z,16.54
2023-03-22T11:10:07.000Z,16.61
2023-03-22T11:10:59.000Z,16.63
2023-03-22T11:12:01.000Z,16.65
2023-03-22T11:13:07.000Z,16.69
2023-03-22T11:14:07.000Z,16.69
2023-03-22T11:14:57.000Z,16.74
2023-03-22T11:15:59.000Z,16.75
2023-03-22T11:17:04.000Z,16.79
2023-03-22T11:18:07.000Z,16.82
2023-03-22T11:19:00.000Z,16.82
2023-03-22T11:19:59.000Z,16.86
2023-03-22T11:21:03.000Z,16.88
2023-03-22T11:21:58.000Z,16.96
2023-03-22T11:23:00.000Z,17.00
2023-03-22T11:24:02.000Z,17.06
2023-03-22T11:24:57.000Z,17.10
2023-03-22T11:26:04.000Z,17.10
2023-03-22T11:27:08.000Z,17.10
2023-03-22T11:28:08.000Z,17.10
2023-03-22T11:29:09.000Z,17.05
2023-03-22T11:30:13.000Z,17.05
2023-03-22T11:31:04.000Z,17.09
2023-03-22T11:31:59.000Z,17.14
2023-03-22T11:33:13.000Z,17.07
2023-03-22T11:33:59.000Z,17.13
2023-03-22T11:35:16.000Z,17.16
2023-03-22T11:35:59.000Z,17.16
2023-03-22T11:37:00.000Z,17.22
2023-03-22T11:37:57.000Z,17.24
2023-03-22T11:39:00.000Z,17.31
2023-03-22T11:40:00.000Z,17.33
2023-03-22T11:41:02.000Z,17.23
2023-03-22T11:42:00.000Z,17.31
2023-03-22T11:43:11.000Z,17.36
2023-03-22T11:44:01.000Z,17.36
2023-03-22T11:44:57.000Z,17.39
2023-03-22T11:45:58.000Z,17.41
2023-03-22T11:46:59.000Z,17.44
2023-03-22T11:48:05.000Z,17.48
2023-03-22T11:49:00.000Z,17.56
2023-03-22T11:50:01.000Z,17.60
2023-03-22T11:51:09.000Z,17.62
2023-03-22T11:52:06.000Z,17.68
2023-03-22T11:53:00.000Z,17.63
2023-03-22T11:54:08.000Z,17.60
2023-03-22T11:54:57.000Z,17.60
2023-03-22T11:55:56.000Z,17.62
2023-03-22T11:57:00.000Z,17.65
2023-03-22T11:57:56.000Z,17.60
2023-03-22T11:59:09.000Z,17.57
2023-03-22T12:00:10.000Z,17.58
2023-03-22T12:01:00.000Z,17.62
2023-03-22T12:02:19.000Z,17.67
2023-03-22T12:03:01.000Z,17.67
2023-03-22T12:03:59.000Z,17.71
2023-03-22T12:05:09.000Z,17.77
2023-03-22T12:05:59.000Z,17.86
2023-03-22T12:06:59.000Z,17.88
2023-03-22T12:08:01.000Z,17.92
2023-03-22T12:09:07.000Z,17.97
2023-03-22T12:10:01.000Z,17.92
2023-03-22T12:11:10.000Z,17.91
2023-03-22T12:11:58.000Z,17.86
2023-03-22T12:13:02.000Z,17.86
2023-03-22T12:14:14.000Z,17.85
2023-03-22T12:15:06.000Z,17.79
2023-03-22T12:16:00.000Z,17.85
2023-03-22T12:17:06.000Z,17.88
2023-03-22T12:18:06.000Z,17.93
2023-03-22T12:19:06.000Z,17.98
2023-03-22T12:20:03.000Z,18.00
2023-03-22T12:20:58.000Z,18.07
2023-03-22T12:21:57.000Z,18.09
2023-03-22T12:22:56.000Z,18.07
2023-03-22T12:24:00.000Z,18.10
2023-03-22T12:24:57.000Z,18.10
2023-03-22T12:26:09.000Z,18.07
2023-03-22T12:27:03.000Z,18.11
2023-03-22T12:28:00.000Z,18.08
2023-03-22T12:29:06.000Z,18.11
2023-03-22T12:30:01.000Z,18.13
2023-03-22T12:30:58.000Z,18.18
2023-03-22T12:32:09.000Z,18.22
2023-03-22T12:33:07.000Z,18.25
2023-03-22T12:34:01.000Z,18.24
2023-03-22T12:34:58.000Z,18.24
2023-03-22T12:36:02.000Z,18.26
2023-03-22T12:36:57.000Z,18.26
2023-03-22T12:37:59.000Z,18.30
2023-03-22T12:39:01.000Z,18.33
2023-03-22T12:40:01.000Z,18.31
2023-03-22T12:41:01.000Z,18.35
2023-03-22T12:42:06.000Z,18.41
2023-03-22T12:43:02.000Z,18.44
2023-03-22T12:44:04.000Z,18.38
2023-03-22T12:45:03.000Z,18.40
2023-03-22T12:45:59.000Z,18.33
2023-03-22T12:47:06.000Z,18.27
2023-03-22T12:48:05.000Z,18.24
2023-03-22T12:49:03.000Z,18.24
2023-03-22T12:50:03.000Z,18.25
2023-03-22T12:51:09.000Z,18.32
2023-03-22T12:52:13.000Z,18.31
2023-03-22T12:52:57.000Z,18.30
2023-03-22T12:53:58.000Z,18.31
2023-03-22T12:54:59.000Z,18.37
2023-03-22T12:55:57.000Z,18.32